createdAt,value
2023-03-19T06:20:06.078Z,100.00
2023-03-19T06:30:06.199Z,100.00
2023-03-19T06:40:06.354Z,100.00
2023-03-19T06:50:06.196Z,100.00
2023-03-19T07:00:06.349Z,100.00
2023-03-19T07:10:06.107Z,100.00
2023-03-19T07:20:06.408Z,100.00
2023-03-19T07:30:06.282Z,100.00
2023-03-19T07:40:06.236Z,100.00
2023-03-19T07:50:06.306Z,100.00
2023-03-19T08:00:06.263Z,100.00
2023-03-19T08:10:06.249Z,100.00
2023-03-19T08:20:06.392Z,100.00
2023-03-19T08:30:06.459Z,100.00
2023-03-19T08:40:06.357Z,100.00
2023-03-19T08:50:06.593Z,100.00
2023-03-19T09:00:06.336Z,100.00
2023-03-19T09:10:06.491Z,100.00
2023-03-19T09:20:06.393Z,100.00
2023-03-19T09:30:06.442Z,100.00
2023-03-19T09:40:06.545Z,100.00
2023-03-19T09:50:06.585Z,100.00
2023-03-19T10:00:06.548Z,100.00
2023-03-19T10:10:06.518Z,100.00
2023-03-19T10:20:06.593Z,100.00
2023-03-19T10:30:06.803Z,100.00
2023-03-19T10:40:06.496Z,100.00
2023-03-19T10:50:06.474Z,100.00
2023-03-19T11:00:06.561Z,95.54
2023-03-19T11:10:06.648Z,88.11
2023-03-19T11:20:06.980Z,81.89
2023-03-19T11:30:06.631Z,80.98
2023-03-19T11:40:06.791Z,81.02
2023-03-19T11:50:06.529Z,77.18
2023-03-19T12:00:06.590Z,79.48
2023-03-19T12:10:06.663Z,77.44
2023-03-19T12:20:06.858Z,75.36
2023-03-19T12:30:06.518Z,76.64
2023-03-19T12:40:07.099Z,77.52
2023-03-19T12:50:06.740Z,77.55
2023-03-19T13:00:06.963Z,74.10
2023-03-19T13:10:06.837Z,72.19
2023-03-19T13:20:06.740Z,70.17
2023-03-19T13:30:07.026Z,72.18
2023-03-19T13:40:06.774Z,70.16
2023-03-19T13:50:06.947Z,69.70
2023-03-19T14:00:06.809Z,70.76
2023-03-19T14:10:06.766Z,72.54
2023-03-19T14:20:08.995Z,74.31
2023-03-19T14:30:07.071Z,75.72
2023-03-19T14:40:06.789Z,79.10
2023-03-19T14:50:06.910Z,82.64
2023-03-19T15:00:06.900Z,85.40
2023-03-19T15:10:06.885Z,84.65
2023-03-19T15:20:07.136Z,80.81
2023-03-19T15:30:14.496Z,80.51
2023-03-19T15:40:06.874Z,81.27
2023-03-19T15:50:07.114Z,82.37
2023-03-19T16:00:06.698Z,80.25
2023-03-19T16:10:07.052Z,76.77
2023-03-19T16:20:06.931Z,83.62
2023-03-19T16:30:06.778Z,89.85
2023-03-19T16:40:06.953Z,94.13
2023-03-19T16:50:06.922Z,94.48
2023-03-19T17:00:07.179Z,92.83
2023-03-19T17:10:06.907Z,95.88
2023-03-19T17:20:07.040Z,96.61
2023-03-19T17:30:07.069Z,99.42
2023-03-19T17:40:07.046Z,100.00
2023-03-19T17:50:07.228Z,100.00
2023-03-19T18:00:07.166Z,100.00
2023-03-19T18:10:07.236Z,100.00
2023-03-19T18:20:07.001Z,100.00
2023-03-19T18:30:07.162Z,100.00
2023-03-19T18:40:06.994Z,100.00
2023-03-19T18:50:06.994Z,100.00
2023-03-19T19:00:07.054Z,100.00
2023-03-19T19:10:07.531Z,100.00
2023-03-19T19:20:07.406Z,100.00
